DLA8MM EDDF-LIRQ
Flight info
| Callsign | DLA8MM |
|---|---|
| Flight time | N/A |
| Altitude | 33000 |
| Route | CINDY8S/18 CINDY Z74 LAMPU DCT NOMBO Y161 RIDAR DCT KONIN DCT BERAS DCT LIKDA DCT BAKOR DCT VESAL DCT LAMPO DCT VIC DCT LUMAV/N0383F230 Q58 BIKTU |
| Aircraft | E195/M-SDE3GILORVW/S |
Departure
| Time | 2026-05-04 19:19 |
|---|---|
| Airport | Frankfurt Main Airport (EDDF) |
Arrival
| Time | N/A |
|---|---|
| Airport | Florence Airport, Peretola (LIRQ) |
| Time | Latitude | Longitude | Altitude | Speed | Heading |
|---|---|---|---|---|---|
| 2026-05-04 18:31 | 50.04902 | 8.58872 | 364 ft | 0 kts | 160° |
| 2026-05-04 18:32 | 50.04902 | 8.58871 | 364 ft | 0 kts | 160° |
| 2026-05-04 18:36 | 50.04903 | 8.58871 | 331 ft | 0 kts | 160° |
| 2026-05-04 19:03 | 50.04916 | 8.58864 | 361 ft | 3 kts | 162° |
| 2026-05-04 19:04 | 50.04936 | 8.58855 | 363 ft | 3 kts | 170° |
| 2026-05-04 19:04 | 50.04955 | 8.58852 | 359 ft | 3 kts | 191° |
| 2026-05-04 19:04 | 50.04970 | 8.58860 | 359 ft | 2 kts | 234° |
| 2026-05-04 19:04 | 50.04973 | 8.58867 | 359 ft | 0 kts | 243° |
| 2026-05-04 19:07 | 50.04973 | 8.58866 | 359 ft | 1 kts | 245° |
| 2026-05-04 19:07 | 50.04964 | 8.58823 | 364 ft | 8 kts | 251° |
| 2026-05-04 19:07 | 50.04940 | 8.58711 | 360 ft | 10 kts | 261° |
| 2026-05-04 19:08 | 50.04933 | 8.58598 | 362 ft | 10 kts | 251° |
| 2026-05-04 19:08 | 50.04909 | 8.58489 | 360 ft | 11 kts | 250° |
| 2026-05-04 19:08 | 50.04880 | 8.58378 | 362 ft | 11 kts | 249° |
| 2026-05-04 19:08 | 50.04851 | 8.58258 | 360 ft | 12 kts | 249° |
| 2026-05-04 19:09 | 50.04820 | 8.58127 | 357 ft | 14 kts | 250° |
| 2026-05-04 19:09 | 50.04775 | 8.57985 | 365 ft | 15 kts | 226° |
| 2026-05-04 19:09 | 50.04701 | 8.57874 | 356 ft | 15 kts | 237° |
| 2026-05-04 19:09 | 50.04667 | 8.57719 | 364 ft | 16 kts | 251° |
| 2026-05-04 19:10 | 50.04627 | 8.57563 | 359 ft | 16 kts | 248° |
| 2026-05-04 19:10 | 50.04588 | 8.57396 | 356 ft | 17 kts | 250° |
| 2026-05-04 19:10 | 50.04547 | 8.57220 | 358 ft | 18 kts | 250° |
| 2026-05-04 19:10 | 50.04519 | 8.57102 | 358 ft | 18 kts | 250° |
| 2026-05-04 19:11 | 50.04475 | 8.56921 | 362 ft | 17 kts | 250° |
| 2026-05-04 19:11 | 50.04434 | 8.56743 | 360 ft | 18 kts | 250° |
| 2026-05-04 19:11 | 50.04388 | 8.56552 | 355 ft | 19 kts | 250° |
| 2026-05-04 19:11 | 50.04324 | 8.56282 | 357 ft | 20 kts | 251° |
| 2026-05-04 19:12 | 50.04274 | 8.56070 | 357 ft | 21 kts | 247° |
| 2026-05-04 19:12 | 50.04165 | 8.55631 | 356 ft | 23 kts | 250° |
| 2026-05-04 19:12 | 50.04130 | 8.55478 | 351 ft | 23 kts | 249° |
| 2026-05-04 19:13 | 50.04075 | 8.55250 | 356 ft | 22 kts | 250° |
| 2026-05-04 19:13 | 50.04034 | 8.55080 | 357 ft | 5 kts | 251° |
| 2026-05-04 19:13 | 50.04032 | 8.55073 | 355 ft | 1 kts | 250° |
| 2026-05-04 19:13 | 50.04028 | 8.55054 | 354 ft | 2 kts | 250° |
| 2026-05-04 19:14 | 50.04022 | 8.55027 | 358 ft | 3 kts | 250° |
| 2026-05-04 19:14 | 50.04011 | 8.54979 | 354 ft | 6 kts | 250° |
| 2026-05-04 19:14 | 50.03995 | 8.54908 | 355 ft | 8 kts | 250° |
| 2026-05-04 19:14 | 50.03966 | 8.54794 | 354 ft | 13 kts | 249° |
| 2026-05-04 19:15 | 50.03931 | 8.54648 | 351 ft | 15 kts | 249° |
| 2026-05-04 19:15 | 50.03892 | 8.54483 | 349 ft | 17 kts | 250° |
| 2026-05-04 19:15 | 50.03812 | 8.54259 | 344 ft | 19 kts | 235° |
| 2026-05-04 19:15 | 50.03779 | 8.54139 | 349 ft | 18 kts | 248° |
| 2026-05-04 19:16 | 50.03737 | 8.53964 | 342 ft | 19 kts | 251° |
| 2026-05-04 19:16 | 50.03692 | 8.53769 | 337 ft | 20 kts | 249° |
| 2026-05-04 19:16 | 50.03640 | 8.53569 | 338 ft | 20 kts | 250° |
| 2026-05-04 19:16 | 50.03593 | 8.53360 | 338 ft | 21 kts | 251° |
| 2026-05-04 19:17 | 50.03543 | 8.53143 | 335 ft | 22 kts | 250° |
| 2026-05-04 19:17 | 50.03488 | 8.52921 | 332 ft | 23 kts | 249° |
| 2026-05-04 19:17 | 50.03436 | 8.52732 | 333 ft | 10 kts | 248° |
| 2026-05-04 19:17 | 50.03424 | 8.52687 | 330 ft | 2 kts | 248° |
| 2026-05-04 19:18 | 50.03415 | 8.52654 | 334 ft | 5 kts | 248° |
| 2026-05-04 19:18 | 50.03393 | 8.52597 | 332 ft | 6 kts | 217° |
| 2026-05-04 19:18 | 50.03355 | 8.52592 | 334 ft | 7 kts | 182° |
| 2026-05-04 19:18 | 50.03197 | 8.52585 | 332 ft | 45 kts | 181° |
| 2026-05-04 19:19 | 50.02685 | 8.52589 | 334 ft | 106 kts | 179° |
| 2026-05-04 19:19 | 50.01737 | 8.52606 | 335 ft | 164 kts | 182° |
| 2026-05-04 19:19 | 50.00464 | 8.52596 | 620 ft | 195 kts | 182° |
| 2026-05-04 19:19 | 49.99112 | 8.52576 | 1335 ft | 192 kts | 180° |
| 2026-05-04 19:20 | 49.97721 | 8.52646 | 1863 ft | 206 kts | 172° |
| 2026-05-04 19:20 | 49.96391 | 8.53551 | 2435 ft | 218 kts | 137° |
| 2026-05-04 19:20 | 49.95538 | 8.55492 | 3096 ft | 222 kts | 117° |
| 2026-05-04 19:20 | 49.94811 | 8.57643 | 3770 ft | 227 kts | 118° |
| 2026-05-04 19:21 | 49.94160 | 8.59768 | 4426 ft | 231 kts | 108° |
| 2026-05-04 19:21 | 49.93927 | 8.62265 | 5077 ft | 238 kts | 95° |
| 2026-05-04 19:21 | 49.93858 | 8.64905 | 5632 ft | 257 kts | 94° |
| 2026-05-04 19:21 | 49.93721 | 8.67775 | 6127 ft | 273 kts | 104° |
| 2026-05-04 19:22 | 49.92903 | 8.70402 | 6870 ft | 273 kts | 135° |
| 2026-05-04 19:22 | 49.91427 | 8.72202 | 7741 ft | 270 kts | 148° |
| 2026-05-04 19:22 | 49.89876 | 8.73857 | 8572 ft | 270 kts | 148° |
| 2026-05-04 19:22 | 49.88400 | 8.75691 | 9319 ft | 277 kts | 135° |
| 2026-05-04 19:23 | 49.87354 | 8.78250 | 10040 ft | 284 kts | 122° |
| 2026-05-04 19:23 | 49.86423 | 8.81051 | 10389 ft | 301 kts | 121° |
| 2026-05-04 19:23 | 49.85423 | 8.83987 | 10718 ft | 314 kts | 123° |
| 2026-05-04 19:23 | 49.84332 | 8.86944 | 11253 ft | 322 kts | 123° |
| 2026-05-04 19:24 | 49.83215 | 8.89971 | 10962 ft | 326 kts | 123° |
| 2026-05-04 19:24 | 49.82122 | 8.92977 | 10960 ft | 317 kts | 123° |
| 2026-05-04 19:24 | 49.81042 | 8.95942 | 10953 ft | 316 kts | 123° |
| 2026-05-04 19:24 | 49.79957 | 8.98912 | 10986 ft | 317 kts | 123° |
| 2026-05-04 19:25 | 49.78869 | 9.01892 | 11003 ft | 318 kts | 123° |
| 2026-05-04 19:25 | 49.77781 | 9.04874 | 11006 ft | 318 kts | 123° |
| 2026-05-04 19:25 | 49.76694 | 9.07844 | 10991 ft | 318 kts | 122° |
| 2026-05-04 19:25 | 49.75871 | 9.11031 | 11009 ft | 321 kts | 110° |
| 2026-05-04 19:26 | 49.75324 | 9.14393 | 11004 ft | 323 kts | 106° |
| 2026-05-04 19:26 | 49.74783 | 9.17757 | 10980 ft | 320 kts | 112° |
| 2026-05-04 19:26 | 49.73686 | 9.20690 | 11017 ft | 314 kts | 133° |
| 2026-05-04 19:26 | 49.72249 | 9.23225 | 11008 ft | 314 kts | 135° |
| 2026-05-04 19:27 | 49.70786 | 9.25730 | 10981 ft | 313 kts | 135° |
| 2026-05-04 19:27 | 49.69346 | 9.28244 | 10981 ft | 312 kts | 135° |
| 2026-05-04 19:27 | 49.67929 | 9.30733 | 10974 ft | 313 kts | 135° |
| 2026-05-04 19:27 | 49.66498 | 9.33261 | 10976 ft | 313 kts | 135° |
| 2026-05-04 19:28 | 49.65066 | 9.35786 | 10968 ft | 313 kts | 135° |
| 2026-05-04 19:28 | 49.63633 | 9.38316 | 11250 ft | 313 kts | 134° |
| 2026-05-04 19:28 | 49.62177 | 9.40848 | 11969 ft | 317 kts | 138° |
| 2026-05-04 19:28 | 49.60423 | 9.42898 | 12720 ft | 318 kts | 151° |
| 2026-05-04 19:29 | 49.58497 | 9.44631 | 13520 ft | 323 kts | 153° |
| 2026-05-04 19:29 | 49.56533 | 9.46394 | 14263 ft | 329 kts | 152° |
| 2026-05-04 19:29 | 49.54554 | 9.48198 | 15105 ft | 332 kts | 152° |
| 2026-05-04 19:29 | 49.52557 | 9.50024 | 15927 ft | 336 kts | 152° |
| 2026-05-04 19:30 | 49.50536 | 9.51873 | 16696 ft | 340 kts | 152° |
| 2026-05-04 19:30 | 49.48491 | 9.53740 | 17439 ft | 344 kts | 152° |
| 2026-05-04 19:30 | 49.46418 | 9.55631 | 18196 ft | 349 kts | 152° |
| 2026-05-04 19:30 | 49.44348 | 9.57513 | 18874 ft | 352 kts | 152° |
| 2026-05-04 19:31 | 49.42234 | 9.59438 | 19578 ft | 355 kts | 152° |
| 2026-05-04 19:31 | 49.40091 | 9.61380 | 20277 ft | 359 kts | 152° |
| 2026-05-04 19:31 | 49.37933 | 9.63336 | 20930 ft | 362 kts | 152° |
| 2026-05-04 19:31 | 49.35751 | 9.65309 | 21555 ft | 366 kts | 152° |
| 2026-05-04 19:32 | 49.33614 | 9.67471 | 22149 ft | 372 kts | 142° |
| 2026-05-04 19:32 | 49.31735 | 9.70218 | 22770 ft | 376 kts | 138° |
| 2026-05-04 19:32 | 49.29889 | 9.73086 | 23344 ft | 380 kts | 138° |
| 2026-05-04 19:32 | 49.28014 | 9.75958 | 23871 ft | 383 kts | 139° |
| 2026-05-04 19:33 | 49.26122 | 9.78845 | 24373 ft | 385 kts | 139° |
| 2026-05-04 19:33 | 49.24211 | 9.81751 | 24839 ft | 389 kts | 139° |
| 2026-05-04 19:33 | 49.22279 | 9.84683 | 25331 ft | 393 kts | 139° |
| 2026-05-04 19:33 | 49.20331 | 9.87636 | 25830 ft | 396 kts | 139° |
| 2026-05-04 19:34 | 49.18370 | 9.90604 | 26289 ft | 399 kts | 139° |
| 2026-05-04 19:34 | 49.16392 | 9.93595 | 26741 ft | 402 kts | 139° |
| 2026-05-04 19:34 | 49.14396 | 9.96610 | 27188 ft | 405 kts | 139° |
| 2026-05-04 19:34 | 49.12416 | 9.99596 | 27619 ft | 407 kts | 139° |
| 2026-05-04 19:35 | 49.10394 | 10.02645 | 28038 ft | 410 kts | 139° |
| 2026-05-04 19:35 | 49.08356 | 10.05713 | 28448 ft | 412 kts | 139° |
| 2026-05-04 19:35 | 49.06312 | 10.08790 | 28896 ft | 414 kts | 140° |
| 2026-05-04 19:35 | 49.04240 | 10.11818 | 29454 ft | 411 kts | 141° |
| 2026-05-04 19:36 | 49.02148 | 10.14778 | 30006 ft | 410 kts | 141° |
| 2026-05-04 19:36 | 49.00062 | 10.17739 | 30380 ft | 410 kts | 141° |
| 2026-05-04 19:36 | 48.97977 | 10.20703 | 30785 ft | 410 kts | 141° |
| 2026-05-04 19:36 | 48.95910 | 10.23642 | 31096 ft | 406 kts | 141° |
| 2026-05-04 19:37 | 48.93842 | 10.26575 | 31075 ft | 408 kts | 141° |
| 2026-05-04 19:37 | 48.89715 | 10.32377 | 31047 ft | 399 kts | 141° |
| 2026-05-04 19:38 | 48.85702 | 10.38007 | 31000 ft | 398 kts | 141° |
| 2026-05-04 19:38 | 48.81553 | 10.43884 | 31053 ft | 419 kts | 138° |
| 2026-05-04 19:38 | 48.79541 | 10.47163 | 31015 ft | 431 kts | 136° |
| 2026-05-04 19:39 | 48.77472 | 10.50531 | 30980 ft | 441 kts | 136° |
| 2026-05-04 19:39 | 48.73185 | 10.57422 | 30974 ft | 456 kts | 136° |
| 2026-05-04 19:40 | 48.68805 | 10.64446 | 30966 ft | 460 kts | 136° |
| 2026-05-04 19:40 | 48.64451 | 10.71402 | 31437 ft | 450 kts | 136° |
| 2026-05-04 19:40 | 48.62306 | 10.74807 | 31851 ft | 445 kts | 136° |
| 2026-05-04 19:41 | 48.60179 | 10.78178 | 32109 ft | 443 kts | 136° |
| 2026-05-04 19:41 | 48.57959 | 10.81377 | 32259 ft | 439 kts | 147° |
| 2026-05-04 19:41 | 48.55332 | 10.83692 | 32395 ft | 438 kts | 156° |
| 2026-05-04 19:41 | 48.52612 | 10.85769 | 32638 ft | 439 kts | 156° |
| 2026-05-04 19:42 | 48.49893 | 10.87871 | 32860 ft | 439 kts | 155° |
| 2026-05-04 19:42 | 48.47227 | 10.89935 | 32991 ft | 426 kts | 155° |
| 2026-05-04 19:42 | 48.44607 | 10.91957 | 32973 ft | 423 kts | 156° |
| 2026-05-04 19:43 | 48.39364 | 10.96000 | 32953 ft | 424 kts | 156° |
| 2026-05-04 19:43 | 48.34140 | 11.00027 | 32958 ft | 425 kts | 156° |
| 2026-05-04 19:44 | 48.28874 | 11.04078 | 32961 ft | 425 kts | 156° |
| 2026-05-04 19:44 | 48.23610 | 11.08118 | 32963 ft | 425 kts | 156° |
| 2026-05-04 19:45 | 48.18344 | 11.12149 | 32946 ft | 425 kts | 156° |
| 2026-05-04 19:45 | 48.13111 | 11.16147 | 32942 ft | 424 kts | 156° |
| 2026-05-04 19:46 | 48.07851 | 11.20156 | 32947 ft | 425 kts | 156° |
| 2026-05-04 19:46 | 48.02587 | 11.24160 | 32947 ft | 424 kts | 156° |
| 2026-05-04 19:47 | 47.97322 | 11.28154 | 32941 ft | 424 kts | 156° |
| 2026-05-04 19:47 | 47.92055 | 11.32141 | 32939 ft | 424 kts | 156° |
| 2026-05-04 19:48 | 47.86788 | 11.36118 | 32934 ft | 425 kts | 156° |
| 2026-05-04 19:48 | 47.81662 | 11.40154 | 32894 ft | 410 kts | 154° |
| 2026-05-04 19:49 | 47.76727 | 11.44178 | 32917 ft | 402 kts | 154° |
| 2026-05-04 19:49 | 47.71831 | 11.48135 | 32928 ft | 400 kts | 154° |
| 2026-05-04 19:50 | 47.66928 | 11.52084 | 32929 ft | 402 kts | 154° |
| 2026-05-04 19:50 | 47.61916 | 11.56092 | 32952 ft | 416 kts | 154° |
| 2026-05-04 19:51 | 47.56810 | 11.60178 | 32907 ft | 422 kts | 154° |
| 2026-05-04 19:51 | 47.51642 | 11.64305 | 32910 ft | 423 kts | 154° |
| 2026-05-04 19:52 | 47.46455 | 11.68438 | 32923 ft | 423 kts | 154° |
| 2026-05-04 19:52 | 47.41278 | 11.72554 | 32929 ft | 422 kts | 154° |
| 2026-05-04 19:53 | 47.35950 | 11.76168 | 32962 ft | 420 kts | 169° |
| 2026-05-04 19:53 | 47.33068 | 11.76623 | 32986 ft | 416 kts | 182° |
| 2026-05-04 19:53 | 47.30169 | 11.76528 | 32985 ft | 417 kts | 184° |
| 2026-05-04 19:54 | 47.24377 | 11.76244 | 32953 ft | 416 kts | 184° |
| 2026-05-04 19:54 | 47.18618 | 11.75971 | 32969 ft | 417 kts | 184° |
| 2026-05-04 19:55 | 47.12859 | 11.75701 | 32960 ft | 411 kts | 185° |
| 2026-05-04 19:55 | 47.07175 | 11.75433 | 32995 ft | 410 kts | 184° |
| 2026-05-04 19:56 | 47.01472 | 11.75155 | 33016 ft | 414 kts | 184° |
| 2026-05-04 19:56 | 46.95768 | 11.74848 | 33012 ft | 415 kts | 184° |
| 2026-05-04 19:57 | 46.89967 | 11.74510 | 32999 ft | 418 kts | 184° |
| 2026-05-04 19:57 | 46.84148 | 11.74179 | 33022 ft | 419 kts | 184° |
| 2026-05-04 19:58 | 46.78339 | 11.73850 | 33024 ft | 417 kts | 184° |
| 2026-05-04 19:58 | 46.72515 | 11.73514 | 33024 ft | 419 kts | 185° |
| 2026-05-04 19:59 | 46.66723 | 11.73180 | 33041 ft | 420 kts | 184° |
| 2026-05-04 19:59 | 46.60876 | 11.72861 | 33025 ft | 421 kts | 184° |